sensor_id;sensor_type;location;lat;lon;timestamp;P1;durP1;ratioP1;P2;durP2;ratioP2
50932;SDS011;36921;49.006;9.292;2023-07-20T00:00:47;3.47;;;1.50;;
50932;SDS011;36921;49.006;9.292;2023-07-20T00:03:15;4.15;;;1.23;;
50932;SDS011;36921;49.006;9.292;2023-07-20T00:05:44;14.63;;;1.70;;
50932;SDS011;36921;49.006;9.292;2023-07-20T00:08:09;4.43;;;1.30;;
50932;SDS011;36921;49.006;9.292;2023-07-20T00:10:35;3.42;;;1.40;;
50932;SDS011;36921;49.006;9.292;2023-07-20T00:13:00;6.50;;;1.20;;
50932;SDS011;36921;49.006;9.292;2023-07-20T00:15:25;4.03;;;1.42;;
50932;SDS011;36921;49.006;9.292;2023-07-20T00:17:50;2.55;;;1.30;;
50932;SDS011;36921;49.006;9.292;2023-07-20T00:20:16;2.20;;;1.27;;
50932;SDS011;36921;49.006;9.292;2023-07-20T00:22:41;2.22;;;1.33;;
50932;SDS011;36921;49.006;9.292;2023-07-20T00:25:07;2.95;;;1.30;;
50932;SDS011;36921;49.006;9.292;2023-07-20T00:27:32;2.85;;;1.40;;
50932;SDS011;36921;49.006;9.292;2023-07-20T00:29:58;1.73;;;0.98;;
50932;SDS011;36921;49.006;9.292;2023-07-20T00:32:23;2.72;;;1.15;;
50932;SDS011;36921;49.006;9.292;2023-07-20T00:34:49;2.03;;;1.20;;
50932;SDS011;36921;49.006;9.292;2023-07-20T00:37:14;4.25;;;1.35;;
50932;SDS011;36921;49.006;9.292;2023-07-20T00:39:39;2.25;;;1.00;;
50932;SDS011;36921;49.006;9.292;2023-07-20T00:42:05;4.30;;;1.52;;
50932;SDS011;36921;49.006;9.292;2023-07-20T00:44:30;3.03;;;1.33;;
50932;SDS011;36921;49.006;9.292;2023-07-20T00:46:56;3.65;;;1.33;;
50932;SDS011;36921;49.006;9.292;2023-07-20T00:49:21;2.90;;;1.38;;
50932;SDS011;36921;49.006;9.292;2023-07-20T00:51:47;1.95;;;1.20;;
50932;SDS011;36921;49.006;9.292;2023-07-20T00:54:14;2.78;;;1.10;;
50932;SDS011;36921;49.006;9.292;2023-07-20T00:56:40;2.40;;;1.50;;
50932;SDS011;36921;49.006;9.292;2023-07-20T00:59:05;1.80;;;1.00;;
50932;SDS011;36921;49.006;9.292;2023-07-20T01:01:31;2.22;;;1.27;;
50932;SDS011;36921;49.006;9.292;2023-07-20T01:03:57;2.80;;;1.15;;
50932;SDS011;36921;49.006;9.292;2023-07-20T01:06:30;1.63;;;0.95;;
50932;SDS011;36921;49.006;9.292;2023-07-20T01:14:18;2.10;;;1.27;;
50932;SDS011;36921;49.006;9.292;2023-07-20T01:16:43;3.65;;;1.10;;
50932;SDS011;36921;49.006;9.292;2023-07-20T01:19:09;4.88;;;1.30;;
50932;SDS011;36921;49.006;9.292;2023-07-20T01:21:38;4.65;;;1.35;;
50932;SDS011;36921;49.006;9.292;2023-07-20T01:24:23;2.67;;;1.20;;
50932;SDS011;36921;49.006;9.292;2023-07-20T01:30:03;2.50;;;1.08;;
50932;SDS011;36921;49.006;9.292;2023-07-20T01:32:39;3.25;;;1.10;;
50932;SDS011;36921;49.006;9.292;2023-07-20T01:35:07;3.25;;;1.33;;
50932;SDS011;36921;49.006;9.292;2023-07-20T01:37:36;5.23;;;1.37;;
50932;SDS011;36921;49.006;9.292;2023-07-20T01:40:03;5.45;;;1.40;;
50932;SDS011;36921;49.006;9.292;2023-07-20T01:42:29;1.98;;;1.27;;
50932;SDS011;36921;49.006;9.292;2023-07-20T01:44:55;3.88;;;1.30;;
50932;SDS011;36921;49.006;9.292;2023-07-20T01:47:20;1.58;;;0.90;;
50932;SDS011;36921;49.006;9.292;2023-07-20T01:49:45;2.67;;;1.30;;
50932;SDS011;36921;49.006;9.292;2023-07-20T01:52:14;3.42;;;1.02;;
50932;SDS011;36921;49.006;9.292;2023-07-20T01:54:40;1.48;;;1.10;;
50932;SDS011;36921;49.006;9.292;2023-07-20T01:57:05;4.50;;;1.23;;
50932;SDS011;36921;49.006;9.292;2023-07-20T01:59:31;3.70;;;1.30;;
50932;SDS011;36921;49.006;9.292;2023-07-20T02:01:56;3.25;;;1.15;;
50932;SDS011;36921;49.006;9.292;2023-07-20T02:04:21;2.20;;;1.20;;
50932;SDS011;36921;49.006;9.292;2023-07-20T02:06:47;2.28;;;1.30;;
50932;SDS011;36921;49.006;9.292;2023-07-20T02:09:12;3.10;;;1.20;;
50932;SDS011;36921;49.006;9.292;2023-07-20T02:11:37;2.67;;;0.98;;
50932;SDS011;36921;49.006;9.292;2023-07-20T02:14:03;4.10;;;1.38;;
50932;SDS011;36921;49.006;9.292;2023-07-20T02:16:28;2.45;;;1.30;;
50932;SDS011;36921;49.006;9.292;2023-07-20T02:18:53;2.90;;;1.30;;
50932;SDS011;36921;49.006;9.292;2023-07-20T02:21:22;4.40;;;1.40;;
50932;SDS011;36921;49.006;9.292;2023-07-20T02:23:47;4.25;;;1.08;;
50932;SDS011;36921;49.006;9.292;2023-07-20T02:26:12;5.15;;;1.52;;
50932;SDS011;36921;49.006;9.292;2023-07-20T02:28:38;5.82;;;1.45;;
50932;SDS011;36921;49.006;9.292;2023-07-20T02:31:03;4.53;;;1.40;;
50932;SDS011;36921;49.006;9.292;2023-07-20T02:33:29;4.50;;;1.10;;
50932;SDS011;36921;49.006;9.292;2023-07-20T02:35:54;2.63;;;1.10;;
50932;SDS011;36921;49.006;9.292;2023-07-20T02:38:20;3.78;;;1.27;;
50932;SDS011;36921;49.006;9.292;2023-07-20T02:40:45;2.83;;;1.13;;
50932;SDS011;36921;49.006;9.292;2023-07-20T02:43:11;2.65;;;1.05;;
50932;SDS011;36921;49.006;9.292;2023-07-20T02:45:39;3.85;;;1.20;;
50932;SDS011;36921;49.006;9.292;2023-07-20T02:48:05;1.70;;;1.08;;
50932;SDS011;36921;49.006;9.292;2023-07-20T02:50:35;5.22;;;1.10;;
50932;SDS011;36921;49.006;9.292;2023-07-20T02:53:00;3.67;;;1.10;;
50932;SDS011;36921;49.006;9.292;2023-07-20T02:55:25;1.90;;;1.23;;
50932;SDS011;36921;49.006;9.292;2023-07-20T02:57:51;3.17;;;1.25;;
50932;SDS011;36921;49.006;9.292;2023-07-20T03:00:16;2.70;;;1.38;;
50932;SDS011;36921;49.006;9.292;2023-07-20T03:02:44;3.55;;;1.10;;
50932;SDS011;36921;49.006;9.292;2023-07-20T03:05:12;5.68;;;1.30;;
50932;SDS011;36921;49.006;9.292;2023-07-20T03:07:38;3.22;;;1.08;;
50932;SDS011;36921;49.006;9.292;2023-07-20T03:10:04;6.95;;;1.50;;
50932;SDS011;36921;49.006;9.292;2023-07-20T03:12:32;3.55;;;1.30;;
50932;SDS011;36921;49.006;9.292;2023-07-20T03:14:59;2.10;;;1.20;;
50932;SDS011;36921;49.006;9.292;2023-07-20T03:17:24;2.78;;;1.20;;
50932;SDS011;36921;49.006;9.292;2023-07-20T03:19:50;4.28;;;1.48;;
50932;SDS011;36921;49.006;9.292;2023-07-20T03:22:15;5.63;;;1.50;;
50932;SDS011;36921;49.006;9.292;2023-07-20T03:24:40;2.30;;;1.15;;
50932;SDS011;36921;49.006;9.292;2023-07-20T03:27:06;2.25;;;1.20;;
50932;SDS011;36921;49.006;9.292;2023-07-20T03:29:32;2.20;;;1.15;;
50932;SDS011;36921;49.006;9.292;2023-07-20T03:31:58;3.67;;;1.35;;
50932;SDS011;36921;49.006;9.292;2023-07-20T03:34:24;3.08;;;1.27;;
50932;SDS011;36921;49.006;9.292;2023-07-20T03:36:50;5.05;;;1.30;;
50932;SDS011;36921;49.006;9.292;2023-07-20T03:39:15;4.13;;;1.77;;
50932;SDS011;36921;49.006;9.292;2023-07-20T03:41:41;3.03;;;1.15;;
50932;SDS011;36921;49.006;9.292;2023-07-20T03:44:06;5.32;;;1.50;;
50932;SDS011;36921;49.006;9.292;2023-07-20T03:46:31;3.15;;;1.30;;
50932;SDS011;36921;49.006;9.292;2023-07-20T03:48:59;3.83;;;1.27;;
50932;SDS011;36921;49.006;9.292;2023-07-20T03:51:24;2.83;;;1.20;;
50932;SDS011;36921;49.006;9.292;2023-07-20T03:53:50;3.17;;;1.25;;
50932;SDS011;36921;49.006;9.292;2023-07-20T03:56:15;5.93;;;1.60;;
50932;SDS011;36921;49.006;9.292;2023-07-20T03:58:41;3.08;;;1.40;;
50932;SDS011;36921;49.006;9.292;2023-07-20T04:01:06;5.00;;;1.70;;
50932;SDS011;36921;49.006;9.292;2023-07-20T04:03:32;4.90;;;1.55;;
50932;SDS011;36921;49.006;9.292;2023-07-20T04:05:58;6.88;;;1.60;;
50932;SDS011;36921;49.006;9.292;2023-07-20T04:08:24;2.55;;;1.45;;
50932;SDS011;36921;49.006;9.292;2023-07-20T04:10:49;2.83;;;1.70;;
50932;SDS011;36921;49.006;9.292;2023-07-20T04:13:15;2.35;;;1.30;;
50932;SDS011;36921;49.006;9.292;2023-07-20T04:15:41;2.45;;;1.40;;
50932;SDS011;36921;49.006;9.292;2023-07-20T04:18:07;3.80;;;1.42;;
50932;SDS011;36921;49.006;9.292;2023-07-20T04:20:33;3.72;;;1.50;;
50932;SDS011;36921;49.006;9.292;2023-07-20T04:22:58;3.85;;;1.60;;
50932;SDS011;36921;49.006;9.292;2023-07-20T04:25:24;7.30;;;1.58;;
50932;SDS011;36921;49.006;9.292;2023-07-20T04:27:49;3.55;;;1.90;;
50932;SDS011;36921;49.006;9.292;2023-07-20T04:30:17;3.20;;;1.42;;
50932;SDS011;36921;49.006;9.292;2023-07-20T04:32:45;4.50;;;1.83;;
50932;SDS011;36921;49.006;9.292;2023-07-20T04:35:11;4.60;;;1.65;;
50932;SDS011;36921;49.006;9.292;2023-07-20T04:37:42;2.10;;;1.38;;
50932;SDS011;36921;49.006;9.292;2023-07-20T04:40:11;4.13;;;1.55;;
50932;SDS011;36921;49.006;9.292;2023-07-20T04:42:38;5.03;;;1.85;;
50932;SDS011;36921;49.006;9.292;2023-07-20T04:45:04;4.40;;;1.50;;
50932;SDS011;36921;49.006;9.292;2023-07-20T04:47:30;3.03;;;1.67;;
50932;SDS011;36921;49.006;9.292;2023-07-20T04:49:55;2.97;;;1.90;;
50932;SDS011;36921;49.006;9.292;2023-07-20T04:52:20;7.45;;;1.90;;
50932;SDS011;36921;49.006;9.292;2023-07-20T04:54:46;3.30;;;2.17;;
50932;SDS011;36921;49.006;9.292;2023-07-20T04:57:11;5.05;;;2.40;;
50932;SDS011;36921;49.006;9.292;2023-07-20T04:59:38;4.10;;;2.25;;
50932;SDS011;36921;49.006;9.292;2023-07-20T05:02:03;4.15;;;2.30;;
50932;SDS011;36921;49.006;9.292;2023-07-20T05:04:29;6.18;;;2.88;;
50932;SDS011;36921;49.006;9.292;2023-07-20T05:06:54;3.13;;;2.00;;
50932;SDS011;36921;49.006;9.292;2023-07-20T05:09:20;4.82;;;2.10;;
50932;SDS011;36921;49.006;9.292;2023-07-20T05:11:45;4.13;;;2.38;;
50932;SDS011;36921;49.006;9.292;2023-07-20T05:14:13;4.82;;;1.95;;
50932;SDS011;36921;49.006;9.292;2023-07-20T05:16:38;4.50;;;1.70;;
50932;SDS011;36921;49.006;9.292;2023-07-20T05:19:03;5.00;;;1.95;;
50932;SDS011;36921;49.006;9.292;2023-07-20T05:21:29;4.90;;;1.70;;
50932;SDS011;36921;49.006;9.292;2023-07-20T05:23:54;3.92;;;1.70;;
50932;SDS011;36921;49.006;9.292;2023-07-20T05:26:21;4.60;;;1.85;;
50932;SDS011;36921;49.006;9.292;2023-07-20T05:28:46;5.43;;;1.65;;
50932;SDS011;36921;49.006;9.292;2023-07-20T05:31:11;5.55;;;1.95;;
50932;SDS011;36921;49.006;9.292;2023-07-20T05:33:38;8.75;;;1.92;;
50932;SDS011;36921;49.006;9.292;2023-07-20T05:36:03;3.55;;;1.70;;
50932;SDS011;36921;49.006;9.292;2023-07-20T05:38:29;3.00;;;1.80;;
50932;SDS011;36921;49.006;9.292;2023-07-20T05:40:58;5.70;;;1.63;;
50932;SDS011;36921;49.006;9.292;2023-07-20T05:43:25;5.28;;;1.65;;
50932;SDS011;36921;49.006;9.292;2023-07-20T05:45:51;3.35;;;1.90;;
50932;SDS011;36921;49.006;9.292;2023-07-20T05:48:17;3.45;;;1.52;;
50932;SDS011;36921;49.006;9.292;2023-07-20T05:50:42;5.97;;;1.83;;
50932;SDS011;36921;49.006;9.292;2023-07-20T05:53:11;6.72;;;1.65;;
50932;SDS011;36921;49.006;9.292;2023-07-20T05:55:37;5.55;;;1.60;;
50932;SDS011;36921;49.006;9.292;2023-07-20T05:58:03;3.90;;;1.52;;
50932;SDS011;36921;49.006;9.292;2023-07-20T06:00:29;3.13;;;1.60;;
50932;SDS011;36921;49.006;9.292;2023-07-20T06:02:54;3.92;;;1.63;;
50932;SDS011;36921;49.006;9.292;2023-07-20T06:05:21;7.22;;;1.90;;
50932;SDS011;36921;49.006;9.292;2023-07-20T06:07:47;3.42;;;1.23;;
50932;SDS011;36921;49.006;9.292;2023-07-20T06:10:12;5.22;;;1.20;;
50932;SDS011;36921;49.006;9.292;2023-07-20T06:12:38;8.70;;;1.40;;
50932;SDS011;36921;49.006;9.292;2023-07-20T06:15:04;2.03;;;1.42;;
50932;SDS011;36921;49.006;9.292;2023-07-20T06:17:30;3.22;;;1.58;;
50932;SDS011;36921;49.006;9.292;2023-07-20T06:19:56;7.63;;;1.77;;
50932;SDS011;36921;49.006;9.292;2023-07-20T06:22:21;5.50;;;1.52;;
50932;SDS011;36921;49.006;9.292;2023-07-20T06:24:46;6.97;;;1.65;;
50932;SDS011;36921;49.006;9.292;2023-07-20T06:27:12;5.10;;;1.60;;
50932;SDS011;36921;49.006;9.292;2023-07-20T06:29:37;8.52;;;1.65;;
50932;SDS011;36921;49.006;9.292;2023-07-20T06:32:03;2.67;;;1.30;;
50932;SDS011;36921;49.006;9.292;2023-07-20T06:34:29;6.55;;;1.73;;
50932;SDS011;36921;49.006;9.292;2023-07-20T06:36:55;6.80;;;1.45;;
50932;SDS011;36921;49.006;9.292;2023-07-20T06:39:20;4.07;;;1.20;;
50932;SDS011;36921;49.006;9.292;2023-07-20T06:41:47;4.97;;;1.83;;
50932;SDS011;36921;49.006;9.292;2023-07-20T06:44:13;5.97;;;1.83;;
50932;SDS011;36921;49.006;9.292;2023-07-20T06:46:38;3.97;;;1.58;;
50932;SDS011;36921;49.006;9.292;2023-07-20T06:49:05;5.63;;;1.42;;
50932;SDS011;36921;49.006;9.292;2023-07-20T06:51:32;4.68;;;1.73;;
50932;SDS011;36921;49.006;9.292;2023-07-20T06:53:57;5.47;;;1.45;;
50932;SDS011;36921;49.006;9.292;2023-07-20T06:56:29;3.03;;;1.38;;
50932;SDS011;36921;49.006;9.292;2023-07-20T06:58:55;4.15;;;1.10;;
50932;SDS011;36921;49.006;9.292;2023-07-20T07:01:20;3.05;;;1.13;;
50932;SDS011;36921;49.006;9.292;2023-07-20T07:03:46;2.28;;;0.90;;
50932;SDS011;36921;49.006;9.292;2023-07-20T07:06:11;2.65;;;0.88;;
50932;SDS011;36921;49.006;9.292;2023-07-20T07:08:37;3.85;;;0.98;;
50932;SDS011;36921;49.006;9.292;2023-07-20T07:11:02;3.38;;;1.05;;
50932;SDS011;36921;49.006;9.292;2023-07-20T07:13:27;2.15;;;0.93;;
50932;SDS011;36921;49.006;9.292;2023-07-20T07:15:53;3.70;;;0.98;;
50932;SDS011;36921;49.006;9.292;2023-07-20T07:18:18;4.47;;;1.38;;
50932;SDS011;36921;49.006;9.292;2023-07-20T07:20:50;5.72;;;1.00;;
50932;SDS011;36921;49.006;9.292;2023-07-20T07:23:16;6.55;;;0.90;;
50932;SDS011;36921;49.006;9.292;2023-07-20T07:25:41;3.30;;;1.10;;
50932;SDS011;36921;49.006;9.292;2023-07-20T07:28:07;2.20;;;1.00;;
50932;SDS011;36921;49.006;9.292;2023-07-20T07:30:32;5.03;;;1.30;;
50932;SDS011;36921;49.006;9.292;2023-07-20T07:32:57;3.53;;;1.13;;
50932;SDS011;36921;49.006;9.292;2023-07-20T07:35:23;5.18;;;1.00;;
50932;SDS011;36921;49.006;9.292;2023-07-20T07:37:48;2.40;;;1.00;;
50932;SDS011;36921;49.006;9.292;2023-07-20T07:40:14;2.55;;;1.10;;
50932;SDS011;36921;49.006;9.292;2023-07-20T07:42:39;2.45;;;1.00;;
50932;SDS011;36921;49.006;9.292;2023-07-20T07:45:05;4.97;;;1.30;;
50932;SDS011;36921;49.006;9.292;2023-07-20T07:47:30;2.83;;;0.75;;
50932;SDS011;36921;49.006;9.292;2023-07-20T07:49:56;2.97;;;0.80;;
50932;SDS011;36921;49.006;9.292;2023-07-20T07:52:22;3.25;;;1.02;;
50932;SDS011;36921;49.006;9.292;2023-07-20T07:54:47;1.73;;;0.85;;
50932;SDS011;36921;49.006;9.292;2023-07-20T07:57:13;2.30;;;0.98;;
50932;SDS011;36921;49.006;9.292;2023-07-20T07:59:39;2.10;;;0.90;;
50932;SDS011;36921;49.006;9.292;2023-07-20T08:02:04;3.30;;;1.35;;
50932;SDS011;36921;49.006;9.292;2023-07-20T08:04:30;3.63;;;1.05;;
50932;SDS011;36921;49.006;9.292;2023-07-20T08:06:56;2.72;;;1.00;;
50932;SDS011;36921;49.006;9.292;2023-07-20T08:09:22;2.42;;;0.90;;
50932;SDS011;36921;49.006;9.292;2023-07-20T08:11:47;5.38;;;0.90;;
50932;SDS011;36921;49.006;9.292;2023-07-20T08:14:13;3.15;;;1.00;;
50932;SDS011;36921;49.006;9.292;2023-07-20T08:16:38;2.47;;;1.00;;
50932;SDS011;36921;49.006;9.292;2023-07-20T08:19:04;5.10;;;1.00;;
50932;SDS011;36921;49.006;9.292;2023-07-20T08:21:29;1.92;;;1.05;;
50932;SDS011;36921;49.006;9.292;2023-07-20T08:23:55;2.40;;;1.25;;
50932;SDS011;36921;49.006;9.292;2023-07-20T08:26:20;3.47;;;1.30;;
50932;SDS011;36921;49.006;9.292;2023-07-20T08:28:47;3.50;;;0.90;;
50932;SDS011;36921;49.006;9.292;2023-07-20T08:31:13;5.25;;;1.13;;
50932;SDS011;36921;49.006;9.292;2023-07-20T08:33:38;3.63;;;0.90;;
50932;SDS011;36921;49.006;9.292;2023-07-20T08:36:04;3.35;;;1.10;;
50932;SDS011;36921;49.006;9.292;2023-07-20T08:38:30;1.65;;;0.80;;
50932;SDS011;36921;49.006;9.292;2023-07-20T08:40:56;5.28;;;1.17;;
50932;SDS011;36921;49.006;9.292;2023-07-20T08:43:22;2.85;;;1.10;;
50932;SDS011;36921;49.006;9.292;2023-07-20T08:45:51;1.15;;;0.95;;
50932;SDS011;36921;49.006;9.292;2023-07-20T08:48:20;3.80;;;0.90;;
50932;SDS011;36921;49.006;9.292;2023-07-20T08:50:45;4.93;;;0.65;;
50932;SDS011;36921;49.006;9.292;2023-07-20T08:53:14;1.50;;;1.00;;
50932;SDS011;36921;49.006;9.292;2023-07-20T08:55:40;1.08;;;0.70;;
50932;SDS011;36921;49.006;9.292;2023-07-20T08:58:08;2.17;;;0.80;;
50932;SDS011;36921;49.006;9.292;2023-07-20T09:00:37;2.03;;;1.02;;
50932;SDS011;36921;49.006;9.292;2023-07-20T09:03:03;1.63;;;0.90;;
50932;SDS011;36921;49.006;9.292;2023-07-20T09:05:29;1.92;;;1.02;;
50932;SDS011;36921;49.006;9.292;2023-07-20T09:07:55;1.50;;;0.73;;
50932;SDS011;36921;49.006;9.292;2023-07-20T09:10:21;1.58;;;1.00;;
50932;SDS011;36921;49.006;9.292;2023-07-20T09:12:46;1.05;;;0.70;;
50932;SDS011;36921;49.006;9.292;2023-07-20T09:15:12;1.50;;;0.70;;
50932;SDS011;36921;49.006;9.292;2023-07-20T09:17:37;2.20;;;0.88;;
50932;SDS011;36921;49.006;9.292;2023-07-20T09:20:07;2.70;;;0.60;;
50932;SDS011;36921;49.006;9.292;2023-07-20T09:22:36;1.90;;;0.60;;
50932;SDS011;36921;49.006;9.292;2023-07-20T09:25:05;0.82;;;0.80;;
50932;SDS011;36921;49.006;9.292;2023-07-20T09:27:36;4.30;;;1.10;;
50932;SDS011;36921;49.006;9.292;2023-07-20T09:30:03;2.00;;;0.88;;
50932;SDS011;36921;49.006;9.292;2023-07-20T09:32:29;1.58;;;1.00;;
50932;SDS011;36921;49.006;9.292;2023-07-20T09:34:54;1.73;;;0.80;;
50932;SDS011;36921;49.006;9.292;2023-07-20T09:37:20;1.75;;;0.80;;
50932;SDS011;36921;49.006;9.292;2023-07-20T09:39:47;1.80;;;0.70;;
50932;SDS011;36921;49.006;9.292;2023-07-20T09:42:14;1.08;;;0.65;;
50932;SDS011;36921;49.006;9.292;2023-07-20T09:44:40;1.67;;;0.70;;
50932;SDS011;36921;49.006;9.292;2023-07-20T09:47:08;2.95;;;0.80;;
50932;SDS011;36921;49.006;9.292;2023-07-20T09:49:38;1.85;;;0.70;;
50932;SDS011;36921;49.006;9.292;2023-07-20T09:52:08;1.33;;;0.70;;
50932;SDS011;36921;49.006;9.292;2023-07-20T09:54:35;1.42;;;0.85;;
50932;SDS011;36921;49.006;9.292;2023-07-20T09:57:03;3.70;;;0.90;;
50932;SDS011;36921;49.006;9.292;2023-07-20T09:59:30;1.30;;;0.73;;
50932;SDS011;36921;49.006;9.292;2023-07-20T10:01:57;3.17;;;0.98;;
50932;SDS011;36921;49.006;9.292;2023-07-20T10:04:24;3.33;;;0.90;;
50932;SDS011;36921;49.006;9.292;2023-07-20T10:06:51;3.38;;;0.75;;
50932;SDS011;36921;49.006;9.292;2023-07-20T10:09:20;2.38;;;0.80;;
50932;SDS011;36921;49.006;9.292;2023-07-20T10:11:49;1.58;;;0.68;;
50932;SDS011;36921;49.006;9.292;2023-07-20T10:14:22;2.42;;;0.85;;
50932;SDS011;36921;49.006;9.292;2023-07-20T10:16:51;0.80;;;0.50;;
50932;SDS011;36921;49.006;9.292;2023-07-20T10:19:23;1.67;;;0.80;;
50932;SDS011;36921;49.006;9.292;2023-07-20T10:22:10;2.50;;;0.70;;
50932;SDS011;36921;49.006;9.292;2023-07-20T10:24:39;1.45;;;0.82;;
50932;SDS011;36921;49.006;9.292;2023-07-20T10:27:05;1.70;;;0.70;;
50932;SDS011;36921;49.006;9.292;2023-07-20T10:29:31;2.83;;;1.00;;
50932;SDS011;36921;49.006;9.292;2023-07-20T10:31:57;2.30;;;0.90;;
50932;SDS011;36921;49.006;9.292;2023-07-20T10:34:23;1.50;;;0.80;;
50932;SDS011;36921;49.006;9.292;2023-07-20T10:36:49;3.45;;;0.80;;
50932;SDS011;36921;49.006;9.292;2023-07-20T10:39:22;3.53;;;0.90;;
50932;SDS011;36921;49.006;9.292;2023-07-20T10:42:08;1.80;;;0.73;;
50932;SDS011;36921;49.006;9.292;2023-07-20T10:44:41;1.58;;;0.50;;
50932;SDS011;36921;49.006;9.292;2023-07-20T10:47:10;0.73;;;0.50;;
50932;SDS011;36921;49.006;9.292;2023-07-20T10:49:57;1.35;;;0.80;;
50932;SDS011;36921;49.006;9.292;2023-07-20T10:52:23;1.55;;;0.70;;
50932;SDS011;36921;49.006;9.292;2023-07-20T10:54:48;1.02;;;0.60;;
50932;SDS011;36921;49.006;9.292;2023-07-20T10:57:21;1.75;;;0.68;;
50932;SDS011;36921;49.006;9.292;2023-07-20T11:00:06;2.20;;;0.55;;
50932;SDS011;36921;49.006;9.292;2023-07-20T11:02:43;0.80;;;0.57;;
50932;SDS011;36921;49.006;9.292;2023-07-20T11:08:05;2.78;;;0.80;;
50932;SDS011;36921;49.006;9.292;2023-07-20T11:10:34;3.15;;;0.77;;
50932;SDS011;36921;49.006;9.292;2023-07-20T11:18:21;2.20;;;0.80;;
50932;SDS011;36921;49.006;9.292;2023-07-20T11:20:50;1.48;;;0.70;;
50932;SDS011;36921;49.006;9.292;2023-07-20T11:23:17;2.15;;;0.70;;
50932;SDS011;36921;49.006;9.292;2023-07-20T11:25:44;4.10;;;0.88;;
50932;SDS011;36921;49.006;9.292;2023-07-20T11:28:10;1.00;;;0.63;;
50932;SDS011;36921;49.006;9.292;2023-07-20T11:30:36;2.05;;;0.98;;
50932;SDS011;36921;49.006;9.292;2023-07-20T11:33:05;2.72;;;0.80;;
50932;SDS011;36921;49.006;9.292;2023-07-20T11:35:41;3.15;;;0.88;;
50932;SDS011;36921;49.006;9.292;2023-07-20T11:38:08;1.35;;;0.50;;
50932;SDS011;36921;49.006;9.292;2023-07-20T11:40:33;1.55;;;0.70;;
50932;SDS011;36921;49.006;9.292;2023-07-20T11:42:59;0.82;;;0.63;;
50932;SDS011;36921;49.006;9.292;2023-07-20T11:45:25;1.63;;;0.73;;
50932;SDS011;36921;49.006;9.292;2023-07-20T11:47:51;3.30;;;0.68;;
50932;SDS011;36921;49.006;9.292;2023-07-20T11:50:16;1.70;;;0.80;;
50932;SDS011;36921;49.006;9.292;2023-07-20T11:52:42;2.53;;;0.80;;
50932;SDS011;36921;49.006;9.292;2023-07-20T11:55:08;1.38;;;0.80;;
50932;SDS011;36921;49.006;9.292;2023-07-20T11:57:33;1.17;;;0.90;;
50932;SDS011;36921;49.006;9.292;2023-07-20T12:00:02;1.48;;;0.80;;
50932;SDS011;36921;49.006;9.292;2023-07-20T12:02:33;2.20;;;0.63;;
50932;SDS011;36921;49.006;9.292;2023-07-20T12:04:59;3.53;;;0.80;;
50932;SDS011;36921;49.006;9.292;2023-07-20T12:07:25;9.80;;;0.82;;
50932;SDS011;36921;49.006;9.292;2023-07-20T12:10:05;1.55;;;0.90;;
50932;SDS011;36921;49.006;9.292;2023-07-20T12:12:39;1.33;;;0.82;;
50932;SDS011;36921;49.006;9.292;2023-07-20T12:15:15;1.67;;;0.82;;
50932;SDS011;36921;49.006;9.292;2023-07-20T12:17:51;1.48;;;0.73;;
50932;SDS011;36921;49.006;9.292;2023-07-20T12:20:25;2.88;;;0.90;;
50932;SDS011;36921;49.006;9.292;2023-07-20T12:22:56;1.13;;;0.70;;
50932;SDS011;36921;49.006;9.292;2023-07-20T12:25:23;2.90;;;1.00;;
50932;SDS011;36921;49.006;9.292;2023-07-20T12:27:48;1.15;;;0.70;;
50932;SDS011;36921;49.006;9.292;2023-07-20T12:30:14;1.25;;;0.80;;
50932;SDS011;36921;49.006;9.292;2023-07-20T12:32:39;2.20;;;0.95;;
50932;SDS011;36921;49.006;9.292;2023-07-20T12:35:05;1.63;;;0.70;;
50932;SDS011;36921;49.006;9.292;2023-07-20T12:37:31;1.98;;;0.80;;
50932;SDS011;36921;49.006;9.292;2023-07-20T12:39:57;2.35;;;0.70;;
50932;SDS011;36921;49.006;9.292;2023-07-20T12:42:22;1.98;;;0.70;;
50932;SDS011;36921;49.006;9.292;2023-07-20T12:44:49;1.20;;;0.73;;
50932;SDS011;36921;49.006;9.292;2023-07-20T12:47:15;2.13;;;0.70;;
50932;SDS011;36921;49.006;9.292;2023-07-20T12:49:41;2.13;;;0.90;;
50932;SDS011;36921;49.006;9.292;2023-07-20T12:52:10;2.35;;;0.98;;
50932;SDS011;36921;49.006;9.292;2023-07-20T12:54:35;3.35;;;1.17;;
50932;SDS011;36921;49.006;9.292;2023-07-20T12:57:01;1.17;;;0.80;;
50932;SDS011;36921;49.006;9.292;2023-07-20T12:59:28;1.35;;;0.70;;
50932;SDS011;36921;49.006;9.292;2023-07-20T13:01:53;3.90;;;0.80;;
50932;SDS011;36921;49.006;9.292;2023-07-20T13:04:19;1.10;;;0.70;;
50932;SDS011;36921;49.006;9.292;2023-07-20T13:06:44;1.17;;;0.50;;
50932;SDS011;36921;49.006;9.292;2023-07-20T13:09:09;0.70;;;0.60;;
50932;SDS011;36921;49.006;9.292;2023-07-20T13:11:35;2.45;;;0.65;;
50932;SDS011;36921;49.006;9.292;2023-07-20T13:14:00;2.65;;;0.60;;
50932;SDS011;36921;49.006;9.292;2023-07-20T13:16:26;1.23;;;0.60;;
50932;SDS011;36921;49.006;9.292;2023-07-20T13:18:51;1.65;;;0.73;;
50932;SDS011;36921;49.006;9.292;2023-07-20T13:21:16;0.80;;;0.60;;
50932;SDS011;36921;49.006;9.292;2023-07-20T13:23:45;5.80;;;0.68;;
50932;SDS011;36921;49.006;9.292;2023-07-20T13:26:11;0.90;;;0.60;;
50932;SDS011;36921;49.006;9.292;2023-07-20T13:28:37;0.68;;;0.60;;
50932;SDS011;36921;49.006;9.292;2023-07-20T13:31:02;1.17;;;0.70;;
50932;SDS011;36921;49.006;9.292;2023-07-20T13:33:28;2.38;;;0.60;;
50932;SDS011;36921;49.006;9.292;2023-07-20T13:35:54;1.58;;;0.60;;
50932;SDS011;36921;49.006;9.292;2023-07-20T13:38:19;2.80;;;0.75;;
50932;SDS011;36921;49.006;9.292;2023-07-20T13:40:45;3.00;;;1.17;;
50932;SDS011;36921;49.006;9.292;2023-07-20T13:43:10;1.05;;;0.70;;
50932;SDS011;36921;49.006;9.292;2023-07-20T13:45:36;1.27;;;0.60;;
50932;SDS011;36921;49.006;9.292;2023-07-20T13:48:02;1.63;;;0.75;;
50932;SDS011;36921;49.006;9.292;2023-07-20T13:50:27;2.85;;;0.70;;
50932;SDS011;36921;49.006;9.292;2023-07-20T13:52:53;1.52;;;0.63;;
50932;SDS011;36921;49.006;9.292;2023-07-20T13:55:19;0.93;;;0.60;;
50932;SDS011;36921;49.006;9.292;2023-07-20T13:57:44;1.13;;;0.70;;
50932;SDS011;36921;49.006;9.292;2023-07-20T14:00:10;4.05;;;0.75;;
50932;SDS011;36921;49.006;9.292;2023-07-20T14:02:36;1.77;;;0.70;;
50932;SDS011;36921;49.006;9.292;2023-07-20T14:05:02;4.32;;;0.70;;
50932;SDS011;36921;49.006;9.292;2023-07-20T14:07:27;2.15;;;0.55;;
50932;SDS011;36921;49.006;9.292;2023-07-20T14:09:53;1.58;;;0.60;;
50932;SDS011;36921;49.006;9.292;2023-07-20T14:12:18;2.33;;;0.80;;
50932;SDS011;36921;49.006;9.292;2023-07-20T14:14:43;1.88;;;0.70;;
50932;SDS011;36921;49.006;9.292;2023-07-20T14:17:09;1.85;;;0.90;;
50932;SDS011;36921;49.006;9.292;2023-07-20T14:19:36;2.05;;;0.80;;
50932;SDS011;36921;49.006;9.292;2023-07-20T14:24:29;1.25;;;0.68;;
50932;SDS011;36921;49.006;9.292;2023-07-20T14:26:54;1.08;;;0.63;;
50932;SDS011;36921;49.006;9.292;2023-07-20T14:29:20;1.13;;;0.57;;
50932;SDS011;36921;49.006;9.292;2023-07-20T14:31:46;1.65;;;0.82;;
50932;SDS011;36921;49.006;9.292;2023-07-20T14:34:15;2.17;;;0.90;;
50932;SDS011;36921;49.006;9.292;2023-07-20T14:36:41;2.15;;;0.73;;
50932;SDS011;36921;49.006;9.292;2023-07-20T14:39:07;1.60;;;0.80;;
50932;SDS011;36921;49.006;9.292;2023-07-20T14:41:32;0.95;;;0.63;;
50932;SDS011;36921;49.006;9.292;2023-07-20T14:43:57;1.23;;;0.80;;
50932;SDS011;36921;49.006;9.292;2023-07-20T14:46:23;2.58;;;0.60;;
50932;SDS011;36921;49.006;9.292;2023-07-20T14:48:48;1.90;;;0.85;;
50932;SDS011;36921;49.006;9.292;2023-07-20T14:51:14;3.47;;;0.60;;
50932;SDS011;36921;49.006;9.292;2023-07-20T14:53:39;0.93;;;0.70;;
50932;SDS011;36921;49.006;9.292;2023-07-20T14:56:04;3.92;;;0.90;;
50932;SDS011;36921;49.006;9.292;2023-07-20T14:58:30;1.30;;;0.80;;
50932;SDS011;36921;49.006;9.292;2023-07-20T15:00:56;1.30;;;0.98;;
50932;SDS011;36921;49.006;9.292;2023-07-20T15:03:21;1.15;;;0.65;;